sensor_id;sensor_type;location;lat;lon;timestamp;pressure;altitude;pressure_sealevel;temperature;humidity
7333;BME280;3707;43.618;25.342;2022-08-20T00:01:33;99639.34;;;29.29;58.49
7333;BME280;3707;43.618;25.342;2022-08-20T00:03:59;99638.31;;;29.32;58.34
7333;BME280;3707;43.618;25.342;2022-08-20T00:06:26;99639.56;;;29.26;60.16
7333;BME280;3707;43.618;25.342;2022-08-20T00:08:53;99639.09;;;29.20;63.79
7333;BME280;3707;43.618;25.342;2022-08-20T00:11:23;99653.19;;;29.09;64.14
7333;BME280;3707;43.618;25.342;2022-08-20T00:13:55;99637.06;;;29.11;63.21
7333;BME280;3707;43.618;25.342;2022-08-20T00:16:27;99621.31;;;28.93;66.08
7333;BME280;3707;43.618;25.342;2022-08-20T00:18:57;99637.84;;;28.73;64.79
7333;BME280;3707;43.618;25.342;2022-08-20T00:21:24;99634.34;;;28.85;62.66
7333;BME280;3707;43.618;25.342;2022-08-20T00:23:52;99636.91;;;28.87;62.37
7333;BME280;3707;43.618;25.342;2022-08-20T00:26:20;99640.78;;;28.95;62.07
7333;BME280;3707;43.618;25.342;2022-08-20T00:28:47;99622.78;;;28.72;61.80
7333;BME280;3707;43.618;25.342;2022-08-20T00:31:17;99642.69;;;28.93;62.13
7333;BME280;3707;43.618;25.342;2022-08-20T00:33:46;99640.78;;;28.95;61.59
7333;BME280;3707;43.618;25.342;2022-08-20T00:36:14;99624.94;;;28.80;63.23
7333;BME280;3707;43.618;25.342;2022-08-20T00:38:43;99643.31;;;28.84;63.34
7333;BME280;3707;43.618;25.342;2022-08-20T00:41:12;99641.19;;;28.89;65.03
7333;BME280;3707;43.618;25.342;2022-08-20T00:43:41;99637.09;;;28.71;63.97
7333;BME280;3707;43.618;25.342;2022-08-20T00:46:11;99636.47;;;28.80;64.05
7333;BME280;3707;43.618;25.342;2022-08-20T00:48:41;99589.69;;;28.48;63.00
7333;BME280;3707;43.618;25.342;2022-08-20T00:51:22;99635.59;;;28.80;62.26
7333;BME280;3707;43.618;25.342;2022-08-20T00:53:53;99629.22;;;28.82;62.81
7333;BME280;3707;43.618;25.342;2022-08-20T00:56:20;99630.38;;;28.78;63.60
7333;BME280;3707;43.618;25.342;2022-08-20T00:58:48;99608.00;;;28.40;70.36
7333;BME280;3707;43.618;25.342;2022-08-20T01:01:17;99555.56;;;27.99;72.17
7333;BME280;3707;43.618;25.342;2022-08-20T01:03:44;99624.75;;;28.15;75.07
7333;BME280;3707;43.618;25.342;2022-08-20T01:06:12;99574.44;;;27.82;77.37
7333;BME280;3707;43.618;25.342;2022-08-20T01:08:39;99624.28;;;27.94;79.26
7333;BME280;3707;43.618;25.342;2022-08-20T01:11:07;99618.09;;;27.80;81.08
7333;BME280;3707;43.618;25.342;2022-08-20T01:13:38;99575.69;;;27.48;81.87
7333;BME280;3707;43.618;25.342;2022-08-20T01:16:13;99589.69;;;27.52;82.43
7333;BME280;3707;43.618;25.342;2022-08-20T01:18:44;99590.63;;;27.51;84.00
7333;BME280;3707;43.618;25.342;2022-08-20T01:21:15;99621.63;;;27.66;88.15
7333;BME280;3707;43.618;25.342;2022-08-20T01:23:49;99617.38;;;27.20;95.54
7333;BME280;3707;43.618;25.342;2022-08-20T01:26:21;99622.88;;;27.02;98.47
7333;BME280;3707;43.618;25.342;2022-08-20T01:28:50;99609.91;;;26.82;100.00
7333;BME280;3707;43.618;25.342;2022-08-20T01:31:20;99605.94;;;26.89;100.00
7333;BME280;3707;43.618;25.342;2022-08-20T01:33:48;99616.88;;;26.99;98.33
7333;BME280;3707;43.618;25.342;2022-08-20T01:36:16;99593.84;;;26.84;96.53
7333;BME280;3707;43.618;25.342;2022-08-20T01:38:45;99593.94;;;26.82;93.85
7333;BME280;3707;43.618;25.342;2022-08-20T01:41:24;99624.03;;;27.13;94.13
7333;BME280;3707;43.618;25.342;2022-08-20T01:43:55;99601.38;;;26.91;100.00
7333;BME280;3707;43.618;25.342;2022-08-20T01:46:26;99596.97;;;26.90;100.00
7333;BME280;3707;43.618;25.342;2022-08-20T01:48:55;99619.53;;;26.99;100.00
7333;BME280;3707;43.618;25.342;2022-08-20T01:51:24;99608.91;;;26.99;100.00
7333;BME280;3707;43.618;25.342;2022-08-20T01:53:54;99607.25;;;26.82;100.00
7333;BME280;3707;43.618;25.342;2022-08-20T01:56:27;99600.03;;;26.84;100.00
7333;BME280;3707;43.618;25.342;2022-08-20T01:58:56;99582.75;;;26.46;100.00
7333;BME280;3707;43.618;25.342;2022-08-20T02:01:26;99589.69;;;26.48;100.00
7333;BME280;3707;43.618;25.342;2022-08-20T02:03:54;99552.34;;;26.20;100.00
7333;BME280;3707;43.618;25.342;2022-08-20T02:06:22;99582.34;;;26.22;100.00
7333;BME280;3707;43.618;25.342;2022-08-20T02:08:52;99574.91;;;26.29;100.00
7333;BME280;3707;43.618;25.342;2022-08-20T02:11:20;99568.63;;;26.30;100.00
7333;BME280;3707;43.618;25.342;2022-08-20T02:13:48;99584.75;;;26.42;99.21
7333;BME280;3707;43.618;25.342;2022-08-20T02:16:18;99562.25;;;26.48;90.94
7333;BME280;3707;43.618;25.342;2022-08-20T02:18:47;99532.25;;;26.46;87.57
7333;BME280;3707;43.618;25.342;2022-08-20T02:21:14;99547.22;;;26.77;85.93
7333;BME280;3707;43.618;25.342;2022-08-20T02:23:41;99565.25;;;26.87;85.76
7333;BME280;3707;43.618;25.342;2022-08-20T02:26:08;99489.69;;;26.46;84.19
7333;BME280;3707;43.618;25.342;2022-08-20T02:28:35;99538.31;;;26.78;83.83
7333;BME280;3707;43.618;25.342;2022-08-20T02:31:04;99563.94;;;27.08;83.40
7333;BME280;3707;43.618;25.342;2022-08-20T02:33:33;99570.41;;;27.04;83.49
7333;BME280;3707;43.618;25.342;2022-08-20T02:36:01;99564.53;;;26.99;83.33
7333;BME280;3707;43.618;25.342;2022-08-20T02:38:28;99570.72;;;27.14;81.95
7333;BME280;3707;43.618;25.342;2022-08-20T02:40:55;99570.25;;;27.22;81.84
7333;BME280;3707;43.618;25.342;2022-08-20T02:43:22;99566.41;;;26.97;89.49
7333;BME280;3707;43.618;25.342;2022-08-20T02:45:49;99574.16;;;26.86;92.02
7333;BME280;3707;43.618;25.342;2022-08-20T02:48:19;99578.53;;;26.87;93.25
7333;BME280;3707;43.618;25.342;2022-08-20T02:50:52;99560.47;;;26.78;92.86
7333;BME280;3707;43.618;25.342;2022-08-20T02:53:20;99568.44;;;26.78;93.64
7333;BME280;3707;43.618;25.342;2022-08-20T02:55:47;99545.84;;;26.55;93.77
7333;BME280;3707;43.618;25.342;2022-08-20T02:58:14;99504.34;;;26.23;95.44
7333;BME280;3707;43.618;25.342;2022-08-20T03:00:42;99583.00;;;26.57;97.61
7333;BME280;3707;43.618;25.342;2022-08-20T03:03:10;99585.06;;;26.52;97.76
7333;BME280;3707;43.618;25.342;2022-08-20T03:05:40;99586.78;;;26.53;98.21
7333;BME280;3707;43.618;25.342;2022-08-20T03:08:09;99571.88;;;26.35;98.30
7333;BME280;3707;43.618;25.342;2022-08-20T03:10:38;99582.16;;;26.41;98.72
7333;BME280;3707;43.618;25.342;2022-08-20T03:13:05;99559.91;;;26.28;100.00
7333;BME280;3707;43.618;25.342;2022-08-20T03:15:37;99562.13;;;26.20;100.00
7333;BME280;3707;43.618;25.342;2022-08-20T03:18:04;99582.59;;;26.02;100.00
7333;BME280;3707;43.618;25.342;2022-08-20T03:20:31;99583.72;;;25.82;100.00
7333;BME280;3707;43.618;25.342;2022-08-20T03:23:00;99583.53;;;25.85;100.00
7333;BME280;3707;43.618;25.342;2022-08-20T03:25:27;99587.78;;;25.56;100.00
7333;BME280;3707;43.618;25.342;2022-08-20T03:27:54;99542.59;;;25.41;100.00
7333;BME280;3707;43.618;25.342;2022-08-20T03:30:23;99589.88;;;25.67;100.00
7333;BME280;3707;43.618;25.342;2022-08-20T03:32:51;99571.19;;;25.53;100.00
7333;BME280;3707;43.618;25.342;2022-08-20T03:35:20;99585.84;;;25.60;100.00
7333;BME280;3707;43.618;25.342;2022-08-20T03:37:48;99601.25;;;25.69;100.00
7333;BME280;3707;43.618;25.342;2022-08-20T03:40:19;99595.63;;;25.75;100.00
7333;BME280;3707;43.618;25.342;2022-08-20T03:42:46;99597.66;;;25.70;100.00
7333;BME280;3707;43.618;25.342;2022-08-20T03:45:13;99570.44;;;25.49;100.00
7333;BME280;3707;43.618;25.342;2022-08-20T03:47:41;99585.72;;;25.61;100.00
7333;BME280;3707;43.618;25.342;2022-08-20T03:50:09;99594.31;;;25.67;100.00
7333;BME280;3707;43.618;25.342;2022-08-20T03:52:36;99592.06;;;25.59;100.00
7333;BME280;3707;43.618;25.342;2022-08-20T03:55:03;99598.94;;;25.63;100.00
7333;BME280;3707;43.618;25.342;2022-08-20T03:57:32;99578.63;;;25.62;100.00
7333;BME280;3707;43.618;25.342;2022-08-20T04:00:00;99603.16;;;25.98;100.00
7333;BME280;3707;43.618;25.342;2022-08-20T04:02:27;99615.84;;;26.09;100.00
7333;BME280;3707;43.618;25.342;2022-08-20T04:04:54;99616.91;;;26.22;100.00
7333;BME280;3707;43.618;25.342;2022-08-20T04:07:23;99620.84;;;26.46;100.00
7333;BME280;3707;43.618;25.342;2022-08-20T04:09:52;99618.50;;;26.72;100.00
7333;BME280;3707;43.618;25.342;2022-08-20T04:12:19;99630.31;;;27.26;100.00
7333;BME280;3707;43.618;25.342;2022-08-20T04:14:47;99634.03;;;27.67;100.00
7333;BME280;3707;43.618;25.342;2022-08-20T04:17:16;99626.25;;;28.05;98.60
7333;BME280;3707;43.618;25.342;2022-08-20T04:19:43;99644.66;;;28.50;95.31
7333;BME280;3707;43.618;25.342;2022-08-20T04:22:10;99639.19;;;29.05;93.49
7333;BME280;3707;43.618;25.342;2022-08-20T04:24:39;99643.94;;;29.40;89.27
7333;BME280;3707;43.618;25.342;2022-08-20T04:27:07;99634.66;;;29.45;88.16
7333;BME280;3707;43.618;25.342;2022-08-20T04:29:36;99644.91;;;29.51;87.88
7333;BME280;3707;43.618;25.342;2022-08-20T04:32:08;99625.34;;;29.51;87.33
7333;BME280;3707;43.618;25.342;2022-08-20T04:34:36;99626.28;;;29.12;89.09
7333;BME280;3707;43.618;25.342;2022-08-20T04:37:05;99645.41;;;29.06;89.57
7333;BME280;3707;43.618;25.342;2022-08-20T04:39:32;99646.81;;;28.58;90.39
7333;BME280;3707;43.618;25.342;2022-08-20T04:41:59;99643.59;;;28.67;91.45
7333;BME280;3707;43.618;25.342;2022-08-20T04:44:25;99643.94;;;28.61;91.43
7333;BME280;3707;43.618;25.342;2022-08-20T04:46:52;99622.38;;;28.25;95.10
7333;BME280;3707;43.618;25.342;2022-08-20T04:49:20;99640.81;;;28.54;94.95
7333;BME280;3707;43.618;25.342;2022-08-20T04:51:51;99633.66;;;28.42;94.08
7333;BME280;3707;43.618;25.342;2022-08-20T04:54:19;99641.16;;;28.77;90.40
7333;BME280;3707;43.618;25.342;2022-08-20T04:56:46;99629.25;;;29.08;86.61
7333;BME280;3707;43.618;25.342;2022-08-20T04:59:13;99640.50;;;29.76;83.42
7333;BME280;3707;43.618;25.342;2022-08-20T05:01:40;99638.47;;;30.05;79.40
7333;BME280;3707;43.618;25.342;2022-08-20T05:04:07;99632.75;;;29.85;77.71
7333;BME280;3707;43.618;25.342;2022-08-20T05:06:35;99640.59;;;30.12;77.56
7333;BME280;3707;43.618;25.342;2022-08-20T05:09:02;99651.47;;;30.58;73.98
7333;BME280;3707;43.618;25.342;2022-08-20T05:11:30;99642.91;;;30.42;70.98
7333;BME280;3707;43.618;25.342;2022-08-20T05:13:57;99623.34;;;29.92;73.92
7333;BME280;3707;43.618;25.342;2022-08-20T05:16:23;99649.38;;;30.14;73.49
7333;BME280;3707;43.618;25.342;2022-08-20T05:18:50;99601.94;;;29.67;74.59
7333;BME280;3707;43.618;25.342;2022-08-20T05:21:17;99648.25;;;30.29;71.98
7333;BME280;3707;43.618;25.342;2022-08-20T05:23:46;99640.41;;;30.02;73.14
7333;BME280;3707;43.618;25.342;2022-08-20T05:26:13;99637.22;;;29.72;75.78
7333;BME280;3707;43.618;25.342;2022-08-20T05:28:40;99640.19;;;29.80;76.77
7333;BME280;3707;43.618;25.342;2022-08-20T05:31:07;99646.34;;;30.19;75.94
7333;BME280;3707;43.618;25.342;2022-08-20T05:33:35;99641.59;;;29.98;76.76
7333;BME280;3707;43.618;25.342;2022-08-20T05:36:04;99638.28;;;29.70;78.93
7333;BME280;3707;43.618;25.342;2022-08-20T05:38:32;99635.31;;;29.49;81.00
7333;BME280;3707;43.618;25.342;2022-08-20T05:41:01;99638.47;;;29.03;86.51
7333;BME280;3707;43.618;25.342;2022-08-20T05:43:28;99640.50;;;28.73;92.24
7333;BME280;3707;43.618;25.342;2022-08-20T05:45:58;99632.94;;;28.53;95.29
7333;BME280;3707;43.618;25.342;2022-08-20T05:48:25;99638.63;;;28.34;96.98
7333;BME280;3707;43.618;25.342;2022-08-20T05:50:53;99633.03;;;28.25;99.44
7333;BME280;3707;43.618;25.342;2022-08-20T05:53:21;99617.94;;;28.38;100.00
7333;BME280;3707;43.618;25.342;2022-08-20T05:55:49;99629.75;;;28.34;99.02
7333;BME280;3707;43.618;25.342;2022-08-20T05:58:19;99636.56;;;28.52;99.82
7333;BME280;3707;43.618;25.342;2022-08-20T06:00:47;99640.78;;;28.42;99.37
7333;BME280;3707;43.618;25.342;2022-08-20T06:03:15;99632.53;;;28.59;98.27
7333;BME280;3707;43.618;25.342;2022-08-20T06:05:59;99635.38;;;28.83;95.40
7333;BME280;3707;43.618;25.342;2022-08-20T06:08:26;99570.38;;;28.44;94.25
7333;BME280;3707;43.618;25.342;2022-08-20T06:10:53;99621.91;;;28.72;93.57
7333;BME280;3707;43.618;25.342;2022-08-20T06:13:21;99639.53;;;29.14;91.10
7333;BME280;3707;43.618;25.342;2022-08-20T06:15:48;99634.16;;;29.01;90.99
7333;BME280;3707;43.618;25.342;2022-08-20T06:18:15;99639.75;;;29.11;89.49
7333;BME280;3707;43.618;25.342;2022-08-20T06:20:42;99616.19;;;28.90;89.72
7333;BME280;3707;43.618;25.342;2022-08-20T06:23:10;99637.31;;;29.33;87.10
7333;BME280;3707;43.618;25.342;2022-08-20T06:25:37;99613.44;;;29.04;87.34
7333;BME280;3707;43.618;25.342;2022-08-20T06:28:04;99632.47;;;29.25;86.62
7333;BME280;3707;43.618;25.342;2022-08-20T06:30:33;99623.81;;;29.22;87.27
7333;BME280;3707;43.618;25.342;2022-08-20T06:33:00;99640.44;;;29.39;86.16
7333;BME280;3707;43.618;25.342;2022-08-20T06:35:27;99628.25;;;29.61;85.89
7333;BME280;3707;43.618;25.342;2022-08-20T06:37:54;99624.72;;;29.60;86.68
7333;BME280;3707;43.618;25.342;2022-08-20T06:40:27;99626.63;;;29.83;84.71
7333;BME280;3707;43.618;25.342;2022-08-20T06:42:57;99640.09;;;30.07;83.44
7333;BME280;3707;43.618;25.342;2022-08-20T06:45:25;99643.16;;;30.14;84.90
7333;BME280;3707;43.618;25.342;2022-08-20T06:47:56;99639.47;;;30.64;81.75
7333;BME280;3707;43.618;25.342;2022-08-20T06:50:26;99645.44;;;30.43;80.83
7333;BME280;3707;43.618;25.342;2022-08-20T06:52:53;99646.69;;;30.50;80.51
7333;BME280;3707;43.618;25.342;2022-08-20T06:55:20;99644.78;;;30.40;81.23
7333;BME280;3707;43.618;25.342;2022-08-20T06:57:55;99645.78;;;30.39;80.13
7333;BME280;3707;43.618;25.342;2022-08-20T07:00:22;99640.28;;;30.40;81.65
7333;BME280;3707;43.618;25.342;2022-08-20T07:02:49;99651.38;;;30.60;80.72
7333;BME280;3707;43.618;25.342;2022-08-20T07:05:17;99649.94;;;30.90;80.28
7333;BME280;3707;43.618;25.342;2022-08-20T07:07:45;99575.34;;;30.62;78.33
7333;BME280;3707;43.618;25.342;2022-08-20T07:10:15;99651.56;;;31.28;73.38
7333;BME280;3707;43.618;25.342;2022-08-20T07:12:42;99643.34;;;31.18;72.52
7333;BME280;3707;43.618;25.342;2022-08-20T07:15:12;99638.81;;;31.54;72.75
7333;BME280;3707;43.618;25.342;2022-08-20T07:17:39;99650.09;;;31.35;71.84
7333;BME280;3707;43.618;25.342;2022-08-20T07:20:08;99602.56;;;31.26;72.10
7333;BME280;3707;43.618;25.342;2022-08-20T07:22:36;99608.91;;;31.36;70.81
7333;BME280;3707;43.618;25.342;2022-08-20T07:25:04;99634.31;;;31.76;70.57
7333;BME280;3707;43.618;25.342;2022-08-20T07:27:32;99620.72;;;31.33;69.19
7333;BME280;3707;43.618;25.342;2022-08-20T07:29:59;99638.22;;;31.72;67.62
7333;BME280;3707;43.618;25.342;2022-08-20T07:32:44;99627.94;;;31.44;68.17
7333;BME280;3707;43.618;25.342;2022-08-20T07:35:13;99636.03;;;31.88;66.10
7333;BME280;3707;43.618;25.342;2022-08-20T07:37:43;99630.41;;;31.58;64.95
7333;BME280;3707;43.618;25.342;2022-08-20T07:40:13;99625.81;;;31.60;64.27
7333;BME280;3707;43.618;25.342;2022-08-20T07:42:40;99621.28;;;31.83;62.89
7333;BME280;3707;43.618;25.342;2022-08-20T07:45:09;99565.81;;;31.61;60.49
7333;BME280;3707;43.618;25.342;2022-08-20T07:47:37;99618.72;;;32.15;59.30
7333;BME280;3707;43.618;25.342;2022-08-20T07:50:06;99620.41;;;32.27;58.99
7333;BME280;3707;43.618;25.342;2022-08-20T07:52:34;99612.00;;;31.98;59.05
7333;BME280;3707;43.618;25.342;2022-08-20T07:55:02;99565.56;;;31.86;58.63
7333;BME280;3707;43.618;25.342;2022-08-20T07:57:30;99586.63;;;32.24;57.77
7333;BME280;3707;43.618;25.342;2022-08-20T07:59:57;99606.66;;;32.52;58.00
7333;BME280;3707;43.618;25.342;2022-08-20T08:02:24;99583.34;;;32.64;56.16
7333;BME280;3707;43.618;25.342;2022-08-20T08:04:52;99594.16;;;32.73;55.05
7333;BME280;3707;43.618;25.342;2022-08-20T08:07:19;99588.41;;;32.99;54.14
7333;BME280;3707;43.618;25.342;2022-08-20T08:09:47;99596.91;;;33.04;53.69
7333;BME280;3707;43.618;25.342;2022-08-20T08:12:16;99604.09;;;33.14;53.54
7333;BME280;3707;43.618;25.342;2022-08-20T08:14:45;99590.56;;;33.46;52.82
7333;BME280;3707;43.618;25.342;2022-08-20T08:17:13;99590.06;;;33.31;51.07
7333;BME280;3707;43.618;25.342;2022-08-20T08:19:44;99577.59;;;33.30;51.38
7333;BME280;3707;43.618;25.342;2022-08-20T08:22:14;99592.44;;;33.55;51.46
7333;BME280;3707;43.618;25.342;2022-08-20T08:24:42;99589.44;;;33.69;51.30
7333;BME280;3707;43.618;25.342;2022-08-20T08:27:11;99587.38;;;33.31;50.79
7333;BME280;3707;43.618;25.342;2022-08-20T08:29:40;99584.78;;;33.51;52.00
7333;BME280;3707;43.618;25.342;2022-08-20T08:32:07;99584.81;;;33.30;50.58
7333;BME280;3707;43.618;25.342;2022-08-20T08:34:35;99557.09;;;32.88;51.28
7333;BME280;3707;43.618;25.342;2022-08-20T08:37:02;99564.03;;;32.90;51.12
7333;BME280;3707;43.618;25.342;2022-08-20T08:39:30;99562.22;;;33.12;51.89
7333;BME280;3707;43.618;25.342;2022-08-20T08:41:59;99554.94;;;33.23;51.93
7333;BME280;3707;43.618;25.342;2022-08-20T08:44:30;99574.09;;;33.60;51.81
7333;BME280;3707;43.618;25.342;2022-08-20T08:47:04;99573.72;;;33.44;50.67
7333;BME280;3707;43.618;25.342;2022-08-20T08:49:44;99565.84;;;33.52;50.84
7333;BME280;3707;43.618;25.342;2022-08-20T08:52:16;99565.78;;;33.73;50.74
7333;BME280;3707;43.618;25.342;2022-08-20T08:54:48;99569.53;;;33.81;49.23
7333;BME280;3707;43.618;25.342;2022-08-20T08:57:15;99544.09;;;33.34;49.52
7333;BME280;3707;43.618;25.342;2022-08-20T08:59:43;99548.63;;;33.34;49.16
7333;BME280;3707;43.618;25.342;2022-08-20T09:02:18;99559.47;;;33.83;48.94
7333;BME280;3707;43.618;25.342;2022-08-20T09:04:46;99553.81;;;33.86;47.91
7333;BME280;3707;43.618;25.342;2022-08-20T09:07:16;99560.31;;;33.84;47.60
7333;BME280;3707;43.618;25.342;2022-08-20T09:09:44;99539.59;;;33.65;46.94
7333;BME280;3707;43.618;25.342;2022-08-20T09:12:14;99551.22;;;33.75;46.76
7333;BME280;3707;43.618;25.342;2022-08-20T09:14:42;99564.16;;;34.01;46.32
7333;BME280;3707;43.618;25.342;2022-08-20T09:17:10;99529.34;;;33.99;45.03
7333;BME280;3707;43.618;25.342;2022-08-20T09:19:39;99554.06;;;34.14;44.97
7333;BME280;3707;43.618;25.342;2022-08-20T09:22:07;99537.75;;;34.15;44.73
7333;BME280;3707;43.618;25.342;2022-08-20T09:24:34;99548.38;;;34.36;44.96
7333;BME280;3707;43.618;25.342;2022-08-20T09:27:01;99541.47;;;34.53;44.42
7333;BME280;3707;43.618;25.342;2022-08-20T09:29:27;99532.25;;;34.65;43.82
7333;BME280;3707;43.618;25.342;2022-08-20T09:32:03;99526.97;;;34.82;43.26
7333;BME280;3707;43.618;25.342;2022-08-20T09:34:34;99530.94;;;34.78;43.31
7333;BME280;3707;43.618;25.342;2022-08-20T09:37:02;99472.31;;;34.34;42.91
7333;BME280;3707;43.618;25.342;2022-08-20T09:39:29;99486.75;;;34.52;42.63
7333;BME280;3707;43.618;25.342;2022-08-20T09:42:05;99509.13;;;34.43;42.78
7333;BME280;3707;43.618;25.342;2022-08-20T09:44:33;99528.13;;;34.42;43.09
7333;BME280;3707;43.618;25.342;2022-08-20T09:47:00;99497.53;;;34.14;43.46
7333;BME280;3707;43.618;25.342;2022-08-20T09:49:26;99511.81;;;34.43;42.43
7333;BME280;3707;43.618;25.342;2022-08-20T09:51:53;99495.81;;;34.32;42.25
7333;BME280;3707;43.618;25.342;2022-08-20T09:54:22;99486.44;;;34.55;42.75
7333;BME280;3707;43.618;25.342;2022-08-20T09:56:52;99507.81;;;34.85;41.80
7333;BME280;3707;43.618;25.342;2022-08-20T09:59:19;99496.78;;;34.89;42.23
7333;BME280;3707;43.618;25.342;2022-08-20T10:01:46;99496.66;;;34.80;42.06
7333;BME280;3707;43.618;25.342;2022-08-20T10:04:13;99501.16;;;35.36;41.64
7333;BME280;3707;43.618;25.342;2022-08-20T10:06:40;99503.13;;;35.16;41.10
7333;BME280;3707;43.618;25.342;2022-08-20T10:09:07;99510.19;;;35.08;41.46
7333;BME280;3707;43.618;25.342;2022-08-20T10:11:35;99492.34;;;35.07;41.82
7333;BME280;3707;43.618;25.342;2022-08-20T10:14:02;99469.91;;;35.06;41.73
7333;BME280;3707;43.618;25.342;2022-08-20T10:16:29;99490.94;;;34.93;41.44
7333;BME280;3707;43.618;25.342;2022-08-20T10:18:56;99474.22;;;34.90;41.52
7333;BME280;3707;43.618;25.342;2022-08-20T10:21:23;99489.56;;;34.60;41.39
7333;BME280;3707;43.618;25.342;2022-08-20T10:23:49;99510.00;;;34.53;41.72
7333;BME280;3707;43.618;25.342;2022-08-20T10:26:16;99506.00;;;34.76;41.57
7333;BME280;3707;43.618;25.342;2022-08-20T10:28:45;99485.00;;;34.90;40.81
7333;BME280;3707;43.618;25.342;2022-08-20T10:31:12;99490.56;;;35.35;40.05
7333;BME280;3707;43.618;25.342;2022-08-20T10:33:39;99497.38;;;35.29;40.76
7333;BME280;3707;43.618;25.342;2022-08-20T10:36:07;99481.25;;;35.10;40.95
7333;BME280;3707;43.618;25.342;2022-08-20T10:38:34;99492.50;;;35.42;40.54
7333;BME280;3707;43.618;25.342;2022-08-20T10:41:01;99491.47;;;35.43;40.91
7333;BME280;3707;43.618;25.342;2022-08-20T10:43:27;99492.44;;;35.24;40.68
7333;BME280;3707;43.618;25.342;2022-08-20T10:45:56;99434.47;;;35.01;40.80
7333;BME280;3707;43.618;25.342;2022-08-20T10:48:23;99489.53;;;35.72;40.78
7333;BME280;3707;43.618;25.342;2022-08-20T10:50:50;99492.94;;;35.74;40.31
7333;BME280;3707;43.618;25.342;2022-08-20T10:53:17;99483.19;;;35.54;39.57
7333;BME280;3707;43.618;25.342;2022-08-20T10:55:44;99488.34;;;35.75;39.50
7333;BME280;3707;43.618;25.342;2022-08-20T10:58:11;99486.25;;;36.14;39.13
7333;BME280;3707;43.618;25.342;2022-08-20T11:00:39;99487.81;;;36.34;39.22
7333;BME280;3707;43.618;25.342;2022-08-20T11:03:07;99489.78;;;36.50;38.71
7333;BME280;3707;43.618;25.342;2022-08-20T11:05:34;99486.44;;;36.30;38.54
7333;BME280;3707;43.618;25.342;2022-08-20T11:08:02;99473.16;;;36.37;38.45
7333;BME280;3707;43.618;25.342;2022-08-20T11:10:31;99485.03;;;36.26;39.60
7333;BME280;3707;43.618;25.342;2022-08-20T11:12:58;99485.88;;;36.44;38.88
7333;BME280;3707;43.618;25.342;2022-08-20T11:15:26;99481.66;;;36.59;38.30
7333;BME280;3707;43.618;25.342;2022-08-20T11:17:53;99476.59;;;36.64;37.65
7333;BME280;3707;43.618;25.342;2022-08-20T11:20:22;99480.44;;;36.80;37.61
7333;BME280;3707;43.618;25.342;2022-08-20T11:22:50;99465.25;;;36.61;37.14
7333;BME280;3707;43.618;25.342;2022-08-20T11:25:17;99471.09;;;36.13;37.67
7333;BME280;3707;43.618;25.342;2022-08-20T11:27:48;99448.31;;;36.15;38.12
7333;BME280;3707;43.618;25.342;2022-08-20T11:30:17;99467.28;;;36.59;37.56
7333;BME280;3707;43.618;25.342;2022-08-20T11:32:45;99462.72;;;35.89;38.15
7333;BME280;3707;43.618;25.342;2022-08-20T11:35:11;99476.00;;;36.17;38.50
7333;BME280;3707;43.618;25.342;2022-08-20T11:37:40;99476.63;;;36.29;37.55
7333;BME280;3707;43.618;25.342;2022-08-20T11:40:08;99478.63;;;36.45;37.81
7333;BME280;3707;43.618;25.342;2022-08-20T11:42:37;99453.56;;;36.35;37.81
7333;BME280;3707;43.618;25.342;2022-08-20T11:45:05;99468.16;;;36.24;37.56
7333;BME280;3707;43.618;25.342;2022-08-20T11:47:32;99474.97;;;36.01;37.32
7333;BME280;3707;43.618;25.342;2022-08-20T11:50:03;99448.53;;;36.22;37.20
7333;BME280;3707;43.618;25.342;2022-08-20T11:52:31;99461.38;;;36.20;38.28
7333;BME280;3707;43.618;25.342;2022-08-20T11:54:59;99450.91;;;36.43;36.80
7333;BME280;3707;43.618;25.342;2022-08-20T11:57:27;99396.78;;;36.26;35.98
7333;BME280;3707;43.618;25.342;2022-08-20T11:59:56;99448.69;;;36.38;35.97
7333;BME280;3707;43.618;25.342;2022-08-20T12:02:23;99387.00;;;36.08;36.84
7333;BME280;3707;43.618;25.342;2022-08-20T12:04:50;99444.56;;;36.52;35.80
7333;BME280;3707;43.618;25.342;2022-08-20T12:07:19;99433.69;;;36.87;35.29
7333;BME280;3707;43.618;25.342;2022-08-20T12:09:47;99441.13;;;36.59;36.33
7333;BME280;3707;43.618;25.342;2022-08-20T12:12:16;99440.94;;;36.43;35.86
7333;BME280;3707;43.618;25.342;2022-08-20T12:14:43;99436.13;;;36.72;35.69
7333;BME280;3707;43.618;25.342;2022-08-20T12:17:12;99375.34;;;36.51;36.15
7333;BME280;3707;43.618;25.342;2022-08-20T12:19:42;99410.88;;;36.38;37.24
7333;BME280;3707;43.618;25.342;2022-08-20T12:22:08;99424.44;;;36.46;37.05
7333;BME280;3707;43.618;25.342;2022-08-20T12:24:35;99415.78;;;36.60;36.73
7333;BME280;3707;43.618;25.342;2022-08-20T12:27:10;99407.00;;;37.10;35.89
7333;BME280;3707;43.618;25.342;2022-08-20T12:29:39;99419.66;;;37.51;35.70
7333;BME280;3707;43.618;25.342;2022-08-20T12:32:07;99411.22;;;37.54;35.13
7333;BME280;3707;43.618;25.342;2022-08-20T12:34:35;99411.28;;;37.70;34.94
7333;BME280;3707;43.618;25.342;2022-08-20T12:37:05;99396.78;;;37.04;35.82
7333;BME280;3707;43.618;25.342;2022-08-20T12:39:33;99397.22;;;37.25;36.10
7333;BME280;3707;43.618;25.342;2022-08-20T12:42:00;99413.50;;;36.99;35.66
7333;BME280;3707;43.618;25.342;2022-08-20T12:44:28;99397.88;;;36.85;34.94
7333;BME280;3707;43.618;25.342;2022-08-20T12:47:06;99388.72;;;37.12;36.39
7333;BME280;3707;43.618;25.342;2022-08-20T12:49:33;99388.84;;;37.44;34.58
7333;BME280;3707;43.618;25.342;2022-08-20T12:52:01;99395.00;;;37.12;35.34
7333;BME280;3707;43.618;25.342;2022-08-20T12:54:28;99395.03;;;37.29;34.62
7333;BME280;3707;43.618;25.342;2022-08-20T12:56:55;99387.03;;;37.11;34.19
7333;BME280;3707;43.618;25.342;2022-08-20T12:59:22;99396.69;;;37.21;34.38
7333;BME280;3707;43.618;25.342;2022-08-20T13:01:49;99395.84;;;37.21;33.98
7333;BME280;3707;43.618;25.342;2022-08-20T13:04:18;99387.81;;;37.37;34.54
7333;BME280;3707;43.618;25.342;2022-08-20T13:06:45;99384.34;;;37.19;34.73
7333;BME280;3707;43.618;25.342;2022-08-20T13:09:13;99381.00;;;37.17;34.96
7333;BME280;3707;43.618;25.342;2022-08-20T13:11:40;99379.66;;;37.29;34.10
7333;BME280;3707;43.618;25.342;2022-08-20T13:14:07;99387.09;;;37.27;34.86
7333;BME280;3707;43.618;25.342;2022-08-20T13:16:35;99381.28;;;37.14;34.52